Time;durP1;ratioP1;P1;durP2;ratioP2;P2;SDS_P1;SDS_P2;PMS_P1;PMS_P2;Temp;Humidity;BMP_temperature;BMP_pressure;BME280_temperature;BME280_humidity;BME280_pressure;Samples;Min_cycle;Max_cycle;Signal;HPM_P1;HPM_P2
2022/09/14 00:01:20;;;;;;;5.20;1.60;;;;;;;13.45;83.01;100101.40;107584;1277;71546;-83
2022/09/14 00:03:54;;;;;;;5.70;1.50;;;;;;;13.41;83.05;100107.73;108022;1277;72725;-82
2022/09/14 00:06:21;;;;;;;8.60;1.70;;;;;;;13.39;83.24;100111.29;107759;1277;62013;-83
2022/09/14 00:08:53;;;;;;;7.90;1.70;;;;;;;13.36;83.41;100104.61;107586;1278;60556;-82
2022/09/14 00:11:22;;;;;;;6.00;1.80;;;;;;;13.35;83.61;100103.52;108088;1276;76778;-82
2022/09/14 00:13:50;;;;;;;9.20;2.20;;;;;;;13.33;83.88;100099.38;108032;1277;72632;-82
2022/09/14 00:16:24;;;;;;;6.00;1.70;;;;;;;13.29;84.19;100100.67;107752;1278;73529;-82
2022/09/14 00:18:52;;;;;;;8.30;1.70;;;;;;;13.25;84.85;100098.87;107969;1277;61745;-83
2022/09/14 00:21:20;;;;;;;7.40;1.90;;;;;;;13.21;85.30;100100.79;107923;1277;59649;-82
2022/09/14 00:23:47;;;;;;;7.80;1.70;;;;;;;13.16;85.94;100099.98;107992;1277;74604;-82
2022/09/14 00:26:17;;;;;;;8.20;1.80;;;;;;;13.13;85.98;100100.63;107732;1278;71684;-82
2022/09/14 00:28:47;;;;;;;8.30;2.30;;;;;;;13.11;86.05;100106.99;107686;1279;72473;-82
2022/09/14 00:31:15;;;;;;;7.60;1.70;;;;;;;13.10;85.98;100103.71;108013;1276;62509;-82
2022/09/14 00:33:46;;;;;;;6.40;1.90;;;;;;;13.11;85.72;100097.93;107794;1277;60669;-82
2022/09/14 00:36:18;;;;;;;6.00;1.80;;;;;;;13.11;85.64;100094.21;108070;1276;74928;-82
2022/09/14 00:38:46;;;;;;;9.60;2.20;;;;;;;13.10;85.70;100088.48;108028;1277;72568;-82
2022/09/14 00:41:18;;;;;;;6.70;1.60;;;;;;;13.10;85.70;100084.26;107715;1278;74247;-82
2022/09/14 00:44:03;;;;;;;6.00;2.30;;;;;;;13.08;85.71;100081.02;108036;1276;63515;-82
2022/09/14 00:46:42;;;;;;;7.80;1.70;;;;;;;13.09;85.88;100080.61;107770;1278;60368;-82
2022/09/14 00:49:13;;;;;;;5.40;1.70;;;;;;;13.09;85.97;100073.08;107798;1278;76076;-82
2022/09/14 00:51:45;;;;;;;7.90;1.70;;;;;;;13.11;85.80;100067.50;108013;1277;72438;-82
2022/09/14 00:54:12;;;;;;;4.40;1.80;;;;;;;13.12;85.77;100065.61;108053;1277;72738;-82
2022/09/14 00:56:39;;;;;;;5.90;1.70;;;;;;;13.12;85.86;100069.23;107673;1277;60953;-82
2022/09/14 00:59:13;;;;;;;8.10;1.90;;;;;;;13.11;85.68;100070.36;107838;1277;59510;-82
2022/09/14 01:01:40;;;;;;;8.50;1.80;;;;;;;13.11;85.99;100073.44;107845;1277;74879;-82
2022/09/14 01:04:07;;;;;;;7.60;1.90;;;;;;;13.08;86.12;100068.65;107724;1277;72605;-82
2022/09/14 01:07:05;;;;;;;8.30;1.70;;;;;;;13.07;86.04;100070.29;107829;1277;73046;-82
2022/09/14 01:10:00;;;;;;;8.70;1.70;;;;;;;13.07;86.25;100064.80;108058;1277;63314;-82
2022/09/14 01:13:16;;;;;;;6.80;1.70;;;;;;;13.08;86.46;100063.44;107984;1277;62065;-82
2022/09/14 01:16:10;;;;;;;5.20;1.70;;;;;;;13.11;86.37;100059.14;107591;1278;77832;-82
2022/09/14 01:18:38;;;;;;;5.10;1.60;;;;;;;13.16;86.34;100053.60;107816;1278;74730;-82
2022/09/14 01:21:17;;;;;;;7.60;1.80;;;;;;;13.19;86.40;100051.71;107861;1277;74316;-82
2022/09/14 01:24:03;;;;;;;6.10;1.80;;;;;;;13.21;86.24;100054.29;107902;1277;62125;-82
2022/09/14 01:26:58;;;;;;;4.90;1.80;;;;;;;13.22;85.77;100053.84;108016;1277;60572;-82
2022/09/14 01:29:27;;;;;;;4.10;1.60;;;;;;;13.19;85.79;100056.05;107843;1277;75081;-81
2022/09/14 01:32:02;;;;;;;6.90;1.90;;;;;;;13.18;85.96;100059.05;108002;1277;71159;-82
2022/09/14 01:34:35;;;;;;;6.30;1.50;;;;;;;13.17;85.87;100058.72;108055;1277;73015;-82
2022/09/14 01:37:12;;;;;;;6.90;1.80;;;;;;;13.17;86.10;100064.91;107737;1278;63796;-81
2022/09/14 01:39:43;;;;;;;4.60;1.70;;;;;;;13.17;86.13;100069.34;107898;1278;60659;-82
2022/09/14 01:42:12;;;;;;;7.90;1.60;;;;;;;13.18;86.17;100071.88;107588;1278;76072;-82
2022/09/14 01:44:44;;;;;;;7.90;1.80;;;;;;;13.18;86.27;100074.79;108074;1277;70558;-82
2022/09/14 01:47:22;;;;;;;5.50;1.60;;;;;;;13.18;86.16;100070.11;108021;1277;73765;-82
2022/09/14 01:49:54;;;;;;;5.30;1.60;;;;;;;13.17;86.28;100063.27;108028;1277;63250;-82
2022/09/14 01:52:39;;;;;;;5.60;1.70;;;;;;;13.18;86.28;100062.13;108060;1276;61810;-82
2022/09/14 01:55:12;;;;;;;6.30;1.70;;;;;;;13.19;86.06;100060.56;108111;1277;73713;-82
2022/09/14 01:58:01;;;;;;;5.00;1.60;;;;;;;13.18;86.05;100052.89;108080;1277;71421;-82
2022/09/14 02:00:29;;;;;;;4.90;1.30;;;;;;;13.17;85.96;100047.04;107746;1278;74551;-81
2022/09/14 02:03:05;;;;;;;5.20;2.00;;;;;;;13.18;86.05;100044.38;107939;1277;63192;-82
2022/09/14 02:06:03;;;;;;;6.00;1.50;;;;;;;13.20;86.09;100042.34;107864;1278;60661;-82
2022/09/14 02:08:34;;;;;;;9.50;2.10;;;;;;;13.22;85.97;100035.11;108172;1279;74118;-81
2022/09/14 02:11:01;;;;;;;4.50;1.40;;;;;;;13.23;85.82;100032.60;108430;1277;71201;-81
2022/09/14 02:13:28;;;;;;;4.70;1.30;;;;;;;13.23;85.74;100028.39;107942;1277;73903;-82
2022/09/14 02:15:55;;;;;;;5.10;1.60;;;;;;;13.22;85.70;100029.09;107874;1277;62338;-82
2022/09/14 02:18:22;;;;;;;7.90;1.70;;;;;;;13.21;85.44;100028.80;107888;1277;60610;-82
2022/09/14 02:20:51;;;;;;;7.30;1.50;;;;;;;13.22;85.74;100030.16;107840;1279;75942;-82
2022/09/14 02:23:19;;;;;;;6.80;1.60;;;;;;;13.23;85.75;100022.24;108071;1277;72871;-82
2022/09/14 02:25:46;;;;;;;7.20;1.70;;;;;;;13.23;85.68;100027.73;108050;1276;73026;-82
2022/09/14 02:28:13;;;;;;;8.90;1.70;;;;;;;13.22;85.52;100028.89;107563;1278;62422;-82
2022/09/14 02:31:22;;;;;;;5.40;1.70;;;;;;;13.22;85.62;100031.39;107924;1277;61404;-82
2022/09/14 02:34:02;;;;;;;6.40;1.60;;;;;;;13.22;85.76;100027.45;107586;1279;74886;-82
2022/09/14 02:36:44;;;;;;;4.50;1.30;;;;;;;13.22;85.44;100027.30;108013;1277;71283;-82
2022/09/14 02:39:21;;;;;;;6.40;1.50;;;;;;;13.21;85.30;100034.14;108135;1277;73017;-82
2022/09/14 02:41:54;;;;;;;8.60;1.80;;;;;;;13.17;85.56;100031.52;108182;1277;63617;-82
2022/09/14 02:44:40;;;;;;;6.60;1.50;;;;;;;13.13;85.41;100031.20;108077;1277;60503;-81
2022/09/14 02:47:26;;;;;;;5.60;1.70;;;;;;;13.11;85.61;100032.39;107960;1278;75081;-82
2022/09/14 02:49:55;;;;;;;5.40;1.60;;;;;;;13.10;85.62;100028.51;108131;1276;71480;-82
2022/09/14 02:52:26;;;;;;;6.00;1.40;;;;;;;13.07;85.73;100032.15;108070;1277;73878;-82
2022/09/14 02:55:02;;;;;;;6.70;1.80;;;;;;;13.04;85.72;100030.18;108085;1277;62080;-81
2022/09/14 02:57:29;;;;;;;7.70;1.70;;;;;;;13.05;86.01;100024.17;107622;1277;60358;-83
2022/09/14 02:59:56;;;;;;;6.30;1.60;;;;;;;13.04;86.03;100015.64;107884;1277;75414;-82
2022/09/14 03:02:22;;;;;;;6.80;1.50;;;;;;;13.05;85.88;100014.01;107762;1277;72343;-82
2022/09/14 03:04:50;;;;;;;5.50;1.70;;;;;;;13.05;85.91;100011.84;107681;1279;72904;-82
2022/09/14 03:07:17;;;;;;;5.70;1.90;;;;;;;13.04;85.71;100008.06;107815;1277;63210;-81
2022/09/14 03:09:44;;;;;;;5.60;1.40;;;;;;;13.02;86.05;100004.55;107791;1279;60429;-82
2022/09/14 03:12:11;;;;;;;6.00;1.80;;;;;;;13.03;86.13;100006.31;107709;1278;76174;-82
2022/09/14 03:14:38;;;;;;;7.00;1.50;;;;;;;13.03;86.09;100014.09;107772;1278;73359;-81
2022/09/14 03:17:05;;;;;;;7.70;1.90;;;;;;;13.03;86.01;100019.09;107796;1278;73924;-82
2022/09/14 03:19:32;;;;;;;7.70;1.60;;;;;;;13.01;85.95;100017.04;107866;1278;62013;-81
2022/09/14 03:21:59;;;;;;;7.00;1.70;;;;;;;12.97;86.06;100017.01;107797;1277;59752;-82
2022/09/14 03:24:26;;;;;;;8.90;1.50;;;;;;;12.94;86.19;100018.83;107854;1277;74678;-82
2022/09/14 03:26:54;;;;;;;5.30;1.70;;;;;;;12.94;86.20;100012.09;107721;1281;71349;-82
2022/09/14 03:29:20;;;;;;;5.80;1.80;;;;;;;12.94;86.39;100012.39;107917;1277;73913;-82
2022/09/14 03:31:48;;;;;;;5.30;1.60;;;;;;;12.96;86.43;100007.27;107535;1279;62061;-82
2022/09/14 03:34:14;;;;;;;6.60;1.70;;;;;;;12.96;86.00;99997.80;107829;1277;61585;-82
2022/09/14 03:36:42;;;;;;;8.10;2.00;;;;;;;12.93;85.95;99990.48;107994;1277;76648;-82
2022/09/14 03:39:09;;;;;;;6.50;1.70;;;;;;;12.87;85.74;99986.10;107803;1277;71195;-81
2022/09/14 03:41:35;;;;;;;8.00;2.20;;;;;;;12.83;86.04;99982.75;107781;1277;71987;-82
2022/09/14 03:44:03;;;;;;;7.40;1.70;;;;;;;12.81;86.39;99978.86;107788;1277;62863;-81
2022/09/14 03:46:30;;;;;;;7.10;1.50;;;;;;;12.82;86.45;99971.66;107688;1281;61817;-81
2022/09/14 03:48:57;;;;;;;5.90;1.90;;;;;;;12.82;86.49;99970.34;108098;1277;74967;-82
2022/09/14 03:51:24;;;;;;;8.60;1.70;;;;;;;12.83;86.60;99972.34;108064;1277;71511;-82
2022/09/14 03:53:51;;;;;;;6.50;1.80;;;;;;;12.84;86.27;99966.95;108084;1277;73006;-81
2022/09/14 03:56:20;;;;;;;6.70;1.80;;;;;;;12.83;86.30;99961.16;107993;1277;61294;-81
2022/09/14 03:58:48;;;;;;;7.50;1.70;;;;;;;12.82;86.15;99962.04;108125;1277;61418;-81
2022/09/14 04:01:17;;;;;;;7.40;1.70;;;;;;;12.80;86.07;99962.04;108043;1277;74931;-82
2022/09/14 04:03:45;;;;;;;9.80;2.20;;;;;;;12.74;85.84;99956.56;108083;1277;71630;-82
2022/09/14 04:06:14;;;;;;;8.30;1.80;;;;;;;12.71;86.03;99956.86;108043;1276;73134;-82
2022/09/14 04:08:42;;;;;;;7.40;1.60;;;;;;;12.68;86.04;99955.42;107584;1281;62182;-82
2022/09/14 04:11:13;;;;;;;5.30;1.50;;;;;;;12.66;86.22;99952.02;107860;1277;61829;-82
2022/09/14 04:13:40;;;;;;;9.80;1.70;;;;;;;12.63;86.27;99947.57;107855;1277;75006;-82
2022/09/14 04:16:07;;;;;;;5.90;1.60;;;;;;;12.59;86.41;99946.92;107744;1277;71340;-82
2022/09/14 04:18:35;;;;;;;6.80;2.20;;;;;;;12.54;86.39;99949.87;107586;1278;72969;-82
2022/09/14 04:21:13;;;;;;;8.40;1.90;;;;;;;12.52;86.45;99951.02;107610;1277;62202;-82
2022/09/14 04:23:40;;;;;;;7.00;1.50;;;;;;;12.49;86.49;99958.77;107744;1278;60395;-82
2022/09/14 04:26:28;;;;;;;6.80;2.00;;;;;;;12.47;86.49;99962.77;108071;1277;75432;-82
2022/09/14 04:28:57;;;;;;;7.40;1.90;;;;;;;12.43;86.73;99963.54;108078;1277;72524;-85
2022/09/14 04:31:24;;;;;;;5.90;2.00;;;;;;;12.42;86.97;99960.85;107768;1277;72597;-85
2022/09/14 04:33:53;;;;;;;6.20;1.90;;;;;;;12.40;86.93;99962.73;108052;1277;62117;-85
2022/09/14 04:36:21;;;;;;;6.60;1.90;;;;;;;12.38;86.82;99961.42;107901;1277;60979;-85
2022/09/14 04:38:52;;;;;;;6.10;2.60;;;;;;;12.38;87.05;99960.35;107864;1277;76026;-85
2022/09/14 04:41:20;;;;;;;7.00;1.80;;;;;;;12.39;87.24;99961.88;107647;1279;71482;-85
2022/09/14 04:43:49;;;;;;;5.80;2.00;;;;;;;12.38;87.15;99970.75;108090;1277;71547;-85
2022/09/14 04:46:18;;;;;;;7.00;2.00;;;;;;;12.38;87.06;99968.21;107656;1278;62311;-85
2022/09/14 04:48:45;;;;;;;8.00;3.40;;;;;;;12.36;87.01;99967.31;107889;1277;62276;-85
2022/09/14 04:51:17;;;;;;;8.00;2.20;;;;;;;12.35;87.15;99959.21;107790;1277;73892;-85
2022/09/14 04:53:49;;;;;;;10.70;3.50;;;;;;;12.33;87.15;99959.45;107905;1277;72400;-85
2022/09/14 04:56:17;;;;;;;7.00;2.20;;;;;;;12.33;87.33;99961.63;107704;1279;74232;-85
2022/09/14 04:58:46;;;;;;;4.40;1.90;;;;;;;12.31;87.19;99961.77;108028;1277;62010;-85
2022/09/14 05:01:20;;;;;;;4.80;2.10;;;;;;;12.30;87.10;99965.19;107785;1279;62121;-85
2022/09/14 05:03:47;;;;;;;5.60;2.30;;;;;;;12.29;87.28;99964.73;108096;1277;75346;-85
2022/09/14 05:06:17;;;;;;;4.40;1.80;;;;;;;12.30;87.24;99962.52;107929;1277;71172;-85
2022/09/14 05:08:44;;;;;;;7.40;2.00;;;;;;;12.30;87.14;99963.41;108086;1277;73859;-85
2022/09/14 05:11:14;;;;;;;5.70;1.80;;;;;;;12.24;86.90;99959.34;107708;1279;62015;-85
2022/09/14 05:13:41;;;;;;;5.50;2.30;;;;;;;12.21;87.34;99956.16;108118;1277;60894;-83
2022/09/14 05:16:19;;;;;;;7.30;2.20;;;;;;;12.22;87.51;99953.80;108084;1276;74734;-83
2022/09/14 05:18:46;;;;;;;6.50;2.10;;;;;;;12.24;87.81;99954.75;107866;1276;71197;-84
2022/09/14 05:21:17;;;;;;;6.60;2.10;;;;;;;12.23;87.51;99955.55;107783;1277;73173;-81
2022/09/14 05:23:44;;;;;;;6.50;2.00;;;;;;;12.23;87.88;99959.65;108051;1277;63570;-81
2022/09/14 05:26:12;;;;;;;8.80;2.30;;;;;;;12.26;87.90;99962.02;107765;1278;60719;-82
2022/09/14 05:28:39;;;;;;;6.00;2.10;;;;;;;12.28;88.00;99960.44;107997;1277;75431;-81
2022/09/14 05:31:08;;;;;;;7.60;1.90;;;;;;;12.32;88.22;99960.92;107707;1279;71363;-81
2022/09/14 05:33:35;;;;;;;4.70;2.10;;;;;;;12.37;88.00;99964.86;108030;1277;73078;-81
2022/09/14 05:36:07;;;;;;;10.50;2.60;;;;;;;12.43;88.04;99960.56;108208;1277;62320;-81
2022/09/14 05:38:37;;;;;;;5.50;2.10;;;;;;;12.46;87.82;99958.77;108235;1277;61462;-81
2022/09/14 05:41:09;;;;;;;7.70;2.00;;;;;;;12.46;87.84;99956.58;107977;1277;76228;-81
2022/09/14 05:43:35;;;;;;;8.10;2.30;;;;;;;12.50;87.80;99960.56;108233;1277;70899;-81
2022/09/14 05:46:08;;;;;;;7.80;2.20;;;;;;;12.55;87.87;99956.30;107787;1277;74275;-81
2022/09/14 05:48:36;;;;;;;5.60;1.80;;;;;;;12.62;88.14;99953.59;107958;1278;62905;-81
2022/09/14 05:51:15;;;;;;;5.90;1.80;;;;;;;12.69;88.07;99952.83;108180;1277;60794;-81
2022/09/14 05:53:46;;;;;;;8.10;2.90;;;;;;;12.75;87.82;99951.07;108254;1277;76341;-82
2022/09/14 05:56:13;;;;;;;8.80;2.10;;;;;;;12.79;87.48;99954.34;108200;1276;72402;-82
2022/09/14 05:58:41;;;;;;;7.20;2.10;;;;;;;12.86;88.02;99952.77;108184;1274;73856;-82
2022/09/14 06:01:18;;;;;;;6.90;2.30;;;;;;;12.96;87.62;99954.72;107899;1277;64975;-82
2022/09/14 06:03:46;;;;;;;7.70;2.10;;;;;;;13.07;87.54;99953.58;108093;1276;61061;-82
2022/09/14 06:06:17;;;;;;;5.00;1.70;;;;;;;13.17;87.33;99949.55;107981;1276;75701;-81
2022/09/14 06:08:43;;;;;;;6.70;2.10;;;;;;;13.26;86.90;99950.38;108160;1277;72345;-81
2022/09/14 06:11:11;;;;;;;7.30;2.10;;;;;;;13.34;86.64;99948.64;107866;1277;74011;-81
2022/09/14 06:13:38;;;;;;;9.60;3.50;;;;;;;13.42;86.39;99946.76;108230;1277;63059;-82
2022/09/14 06:16:14;;;;;;;8.60;2.70;;;;;;;13.51;86.50;99940.55;108217;1277;60650;-82
2022/09/14 06:18:43;;;;;;;6.00;2.30;;;;;;;13.59;86.52;99939.26;107985;1277;76421;-82
2022/09/14 06:21:14;;;;;;;8.30;2.40;;;;;;;13.70;86.33;99940.43;108217;1276;71633;-82
2022/09/14 06:23:40;;;;;;;8.30;2.60;;;;;;;13.79;86.14;99932.92;107992;1277;72838;-82
2022/09/14 06:26:08;;;;;;;7.50;2.20;;;;;;;13.88;85.56;99928.59;108188;1277;61915;-82
2022/09/14 06:28:35;;;;;;;8.90;2.50;;;;;;;13.97;85.44;99922.30;107957;1278;61210;-82
2022/09/14 06:31:06;;;;;;;8.30;2.70;;;;;;;14.08;85.36;99925.83;107990;1277;76582;-82
2022/09/14 06:33:33;;;;;;;8.10;2.30;;;;;;;14.18;84.89;99923.68;106964;1277;1661373;-82
2022/09/14 06:36:11;;;;;;;10.20;2.70;;;;;;;14.27;84.35;99927.93;107966;1277;59110;-82
2022/09/14 06:38:39;;;;;;;11.10;2.70;;;;;;;14.36;83.94;99926.70;107851;1279;60647;-82
2022/09/14 06:41:08;;;;;;;9.90;2.70;;;;;;;14.46;83.51;99925.30;107916;1277;60543;-81
2022/09/14 06:43:40;;;;;;;10.20;2.90;;;;;;;14.55;83.30;99925.44;108223;1275;74688;-81
2022/09/14 06:46:17;;;;;;;12.50;2.80;;;;;;;14.62;83.01;99924.81;108184;1276;70236;-82
2022/09/14 06:48:59;;;;;;;10.60;2.30;;;;;;;14.72;82.83;99931.17;108029;1276;74082;-82
2022/09/14 06:51:29;;;;;;;17.30;3.30;;;;;;;14.82;82.73;99930.28;108048;1277;62022;-81
2022/09/14 06:54:00;;;;;;;14.30;3.00;;;;;;;14.93;82.43;99923.68;107986;1277;60744;-82
2022/09/14 06:56:46;;;;;;;19.80;3.30;;;;;;;15.02;82.12;99919.92;107661;1278;76127;-81
2022/09/14 06:59:15;;;;;;;17.00;3.60;;;;;;;15.14;81.82;99923.93;108128;1277;72256;-81
2022/09/14 07:01:44;;;;;;;17.30;3.20;;;;;;;15.23;80.99;99922.30;108267;1276;73206;-81
2022/09/14 07:04:11;;;;;;;12.80;3.30;;;;;;;15.29;80.38;99920.08;108280;1276;63421;-82
2022/09/14 07:06:42;;;;;;;12.20;3.30;;;;;;;15.35;79.91;99928.61;108226;1277;61546;-82
2022/09/14 07:09:09;;;;;;;18.90;3.40;;;;;;;15.40;79.80;99929.04;107637;1279;73598;-82
2022/09/14 07:11:37;;;;;;;20.80;6.60;;;;;;;15.49;79.72;99932.38;108142;1277;72795;-82
2022/09/14 07:14:04;;;;;;;15.40;3.70;;;;;;;15.59;79.18;99935.37;107956;1276;74205;-82
2022/09/14 07:16:33;;;;;;;14.70;3.10;;;;;;;15.69;78.63;99940.46;107897;1277;61257;-82
2022/09/14 07:19:02;;;;;;;13.70;3.60;;;;;;;15.79;78.17;99939.73;107908;1277;61114;-82
2022/09/14 07:21:30;;;;;;;15.30;3.00;;;;;;;15.87;77.35;99939.28;108165;1277;75024;-82
2022/09/14 07:23:57;;;;;;;18.90;3.60;;;;;;;15.92;77.06;99935.77;107575;1279;72899;-82
2022/09/14 07:26:30;;;;;;;18.90;3.60;;;;;;;16.00;77.18;99930.69;107724;1278;73520;-82
2022/09/14 07:29:00;;;;;;;25.80;4.20;;;;;;;16.13;76.94;99931.56;107925;1277;62909;-82
2022/09/14 07:31:29;;;;;;;15.10;3.40;;;;;;;16.26;76.67;99931.27;107871;1277;61587;-82
2022/09/14 07:34:03;;;;;;;17.00;3.40;;;;;;;16.42;76.47;99932.40;108025;1276;75570;-82
2022/09/14 07:36:31;;;;;;;17.10;3.80;;;;;;;16.54;75.60;99935.95;107911;1277;71211;-82
2022/09/14 07:39:02;;;;;;;26.10;3.90;;;;;;;16.70;75.79;99924.24;108018;1277;72881;-82
2022/09/14 07:41:31;;;;;;;19.10;4.10;;;;;;;16.92;75.18;99920.25;107992;1277;61207;-82
2022/09/14 07:43:59;;;;;;;17.50;3.20;;;;;;;17.12;74.09;99921.83;107847;1278;60334;-82
2022/09/14 07:46:27;;;;;;;11.00;2.90;;;;;;;17.26;72.68;99924.58;107986;1277;74581;-82
2022/09/14 07:48:59;;;;;;;13.90;3.40;;;;;;;17.37;72.65;99920.46;108211;1276;71094;-82
2022/09/14 07:51:28;;;;;;;9.00;2.70;;;;;;;17.54;72.62;99919.23;107681;1279;73263;-82
2022/09/14 07:53:55;;;;;;;9.90;1.70;;;;;;;17.72;72.13;99921.38;107958;1278;60570;-82
2022/09/14 07:56:24;;;;;;;8.40;1.90;;;;;;;17.86;70.92;99920.11;108170;1276;62005;-82
2022/09/14 07:58:57;;;;;;;8.50;2.00;;;;;;;17.94;69.87;99926.44;108203;1277;75942;-82
2022/09/14 08:01:45;;;;;;;7.40;2.10;;;;;;;17.99;69.56;99929.16;108098;1276;73152;-82
2022/09/14 08:04:13;;;;;;;7.60;1.60;;;;;;;18.05;69.50;99923.67;108255;1276;73887;-82
2022/09/14 08:06:39;;;;;;;6.30;1.60;;;;;;;18.11;69.18;99916.70;107740;1278;62515;-82
2022/09/14 08:09:07;;;;;;;6.20;2.20;;;;;;;18.18;69.17;99912.63;108054;1277;59332;-82
2022/09/14 08:11:35;;;;;;;6.70;1.50;;;;;;;18.27;69.29;99912.65;107981;1277;76147;-82
2022/09/14 08:14:05;;;;;;;9.80;2.00;;;;;;;18.35;69.02;99911.38;107734;1278;71196;-82
2022/09/14 08:16:37;;;;;;;9.70;2.20;;;;;;;18.44;68.61;99909.54;108001;1277;72715;-82
2022/09/14 08:19:09;;;;;;;12.50;3.10;;;;;;;18.57;68.39;99907.02;108049;1276;63197;-82
2022/09/14 08:21:36;;;;;;;8.00;2.00;;;;;;;18.71;68.24;99903.95;108005;1277;61579;-82
2022/09/14 08:24:11;;;;;;;9.70;2.10;;;;;;;18.80;67.30;99911.23;107954;1277;75469;-82
2022/09/14 08:26:39;;;;;;;5.80;1.70;;;;;;;18.84;66.88;99906.08;108268;1276;71755;-82
2022/09/14 08:29:06;;;;;;;8.90;1.90;;;;;;;18.95;67.06;99908.36;108247;1277;74063;-82
2022/09/14 08:31:37;;;;;;;8.10;1.50;;;;;;;19.07;66.49;99905.72;107856;1281;62246;-82
2022/09/14 08:34:05;;;;;;;7.20;1.50;;;;;;;19.12;66.04;99907.34;108047;1277;60958;-83
2022/09/14 08:36:37;;;;;;;8.40;1.30;;;;;;;19.21;66.05;99903.90;107699;1277;73624;-82
2022/09/14 08:39:08;;;;;;;9.10;1.50;;;;;;;19.31;65.66;99903.86;108229;1277;71046;-82
2022/09/14 08:41:40;;;;;;;8.90;2.10;;;;;;;19.40;65.13;99911.20;107973;1277;72926;-82
2022/09/14 08:44:30;;;;;;;7.10;1.60;;;;;;;19.49;64.97;99911.73;107714;1278;60256;-82
2022/09/14 08:47:08;;;;;;;5.10;1.60;;;;;;;19.62;65.15;99913.58;108057;1277;60214;-82
2022/09/14 08:49:38;;;;;;;5.50;1.40;;;;;;;19.74;64.88;99915.30;107970;1278;75293;-82
2022/09/14 08:52:09;;;;;;;8.10;1.70;;;;;;;19.81;63.92;99907.51;108214;1277;71334;-82
2022/09/14 08:54:36;;;;;;;8.30;1.60;;;;;;;19.91;64.04;99900.16;107945;1278;73048;-82
2022/09/14 08:57:30;;;;;;;7.10;1.70;;;;;;;20.02;63.61;99898.11;107659;1278;61098;-82
2022/09/14 09:00:12;;;;;;;5.30;1.50;;;;;;;20.21;63.51;99898.90;108126;1276;61665;-81
2022/09/14 09:02:48;;;;;;;7.70;1.80;;;;;;;20.33;62.80;99894.30;108237;1277;74708;-82
2022/09/14 09:05:36;;;;;;;9.30;1.90;;;;;;;20.40;61.83;99895.36;108244;1277;71665;-82
2022/09/14 09:08:12;;;;;;;6.20;1.30;;;;;;;20.48;61.08;99896.27;107890;1278;74305;-82
2022/09/14 09:10:40;;;;;;;8.60;1.70;;;;;;;20.50;60.78;99898.12;108042;1277;60372;-82
2022/09/14 09:13:14;;;;;;;6.60;1.40;;;;;;;20.58;61.66;99901.42;108226;1276;60635;-82
2022/09/14 09:15:49;;;;;;;6.70;1.50;;;;;;;20.67;60.95;99898.52;108202;1277;74806;-82
2022/09/14 09:18:37;;;;;;;4.80;1.00;;;;;;;20.69;59.96;99898.81;108035;1276;71211;-81
2022/09/14 09:21:12;;;;;;;5.70;1.20;;;;;;;20.73;60.72;99892.14;108075;1277;72913;-82
2022/09/14 09:23:40;;;;;;;5.90;1.10;;;;;;;20.81;59.85;99883.65;108053;1277;60375;-82
2022/09/14 09:26:21;;;;;;;6.20;1.50;;;;;;;20.80;60.06;99879.72;107882;1277;60490;-82
2022/09/14 09:28:53;;;;;;;6.40;1.30;;;;;;;20.86;59.29;99880.17;108187;1276;74632;-82
2022/09/14 09:31:32;;;;;;;6.40;1.40;;;;;;;20.95;59.18;99884.26;107941;1277;71455;-83
2022/09/14 09:34:00;;;;;;;8.90;1.70;;;;;;;21.07;58.79;99881.56;108250;1277;72695;-82
2022/09/14 09:36:34;;;;;;;8.30;2.40;;;;;;;21.17;58.63;99875.42;108038;1277;60348;-82
2022/09/14 09:39:03;;;;;;;9.60;2.00;;;;;;;21.20;57.68;99872.96;108097;1276;61330;-82
2022/09/14 09:41:42;;;;;;;7.50;1.40;;;;;;;21.20;57.85;99876.30;108206;1277;75167;-82
2022/09/14 09:44:09;;;;;;;6.90;1.60;;;;;;;21.18;57.74;99874.52;107976;1277;72683;-82
2022/09/14 09:46:54;;;;;;;8.10;1.20;;;;;;;21.17;57.33;99869.98;108023;1277;72821;-83
2022/09/14 09:49:39;;;;;;;7.20;1.50;;;;;;;21.11;56.95;99870.40;108009;1277;60687;-82
2022/09/14 09:52:16;;;;;;;6.60;1.90;;;;;;;21.15;56.85;99877.15;108223;1277;59429;-82
2022/09/14 09:54:50;;;;;;;5.70;1.30;;;;;;;21.23;57.05;99873.45;108342;1276;76048;-83
2022/09/14 09:57:34;;;;;;;7.50;1.40;;;;;;;21.36;56.50;99868.16;108094;1277;71359;-82
2022/09/14 10:00:24;;;;;;;6.50;1.40;;;;;;;21.57;55.59;99863.84;108115;1277;73939;-82
2022/09/14 10:02:52;;;;;;;33.30;26.20;;;;;;;21.75;54.65;99865.38;108050;1278;60812;-83
2022/09/14 10:05:33;;;;;;;8.90;2.70;;;;;;;21.94;54.48;99858.23;108045;1277;60658;-83
2022/09/14 10:08:14;;;;;;;7.50;1.30;;;;;;;22.06;52.57;99855.80;108050;1277;73800;-83
2022/09/14 10:10:42;;;;;;;7.80;1.20;;;;;;;22.06;52.48;99862.88;108060;1277;71786;-83
2022/09/14 10:13:19;;;;;;;6.00;1.40;;;;;;;21.97;53.11;99870.23;108023;1277;72512;-82
2022/09/14 10:15:47;;;;;;;8.10;1.60;;;;;;;21.89;53.54;99866.45;108211;1277;61861;-83
2022/09/14 10:18:19;;;;;;;6.20;1.50;;;;;;;21.90;53.56;99860.40;108030;1277;60609;-82
2022/09/14 10:20:51;;;;;;;4.60;1.20;;;;;;;21.84;53.08;99856.63;107869;1278;73766;-83
2022/09/14 10:23:18;;;;;;;5.10;1.30;;;;;;;21.72;53.11;99857.02;108019;1277;71588;-83
2022/09/14 10:26:09;;;;;;;6.30;1.60;;;;;;;21.65;52.52;99851.16;108168;1276;73215;-83
2022/09/14 10:28:37;;;;;;;5.10;1.50;;;;;;;21.50;52.67;99852.77;107823;1278;63248;-83
2022/09/14 10:31:18;;;;;;;5.40;1.10;;;;;;;21.46;53.31;99847.89;107916;1278;61861;-83
2022/09/14 10:33:50;;;;;;;4.40;1.10;;;;;;;21.40;53.23;99847.28;108293;1277;76160;-83
2022/09/14 10:36:25;;;;;;;5.10;1.30;;;;;;;21.27;53.54;99843.15;107807;1278;72679;-83
2022/09/14 10:39:11;;;;;;;7.10;1.20;;;;;;;21.23;53.99;99839.30;108235;1276;73103;-83
2022/09/14 10:42:06;;;;;;;6.70;2.10;;;;;;;21.17;53.48;99832.17;107993;1277;60489;-84
2022/09/14 10:44:55;;;;;;;6.30;1.50;;;;;;;21.15;54.33;99832.48;108207;1277;60521;-84
2022/09/14 10:47:40;;;;;;;6.10;1.20;;;;;;;21.10;53.78;99827.47;108242;1277;74983;-84
2022/09/14 10:50:25;;;;;;;8.30;1.40;;;;;;;21.02;53.41;99841.46;108212;1276;72270;-84
2022/09/14 10:53:19;;;;;;;4.90;1.20;;;;;;;20.99;53.25;99841.40;107813;1278;72703;-83
2022/09/14 10:56:09;;;;;;;4.40;1.20;;;;;;;20.98;53.85;99838.33;108001;1278;60677;-83
2022/09/14 10:58:57;;;;;;;5.10;1.10;;;;;;;20.93;54.03;99833.08;108079;1277;60601;-82
2022/09/14 11:01:41;;;;;;;5.00;1.00;;;;;;;20.88;54.56;99833.12;108182;1277;75097;-83
2022/09/14 11:04:23;;;;;;;5.40;1.10;;;;;;;20.84;53.03;99835.48;108061;1277;71139;-84
2022/09/14 11:06:50;;;;;;;4.90;1.00;;;;;;;20.75;53.00;99838.47;108262;1276;73039;-83
2022/09/14 11:09:41;;;;;;;5.40;1.30;;;;;;;20.70;53.58;99834.55;108225;1276;60362;-83
2022/09/14 11:12:21;;;;;;;6.30;1.60;;;;;;;20.74;54.29;99837.64;108134;1277;61742;-83
2022/09/14 11:15:15;;;;;;;5.10;1.10;;;;;;;20.84;54.51;99826.42;108309;1277;75975;-83
2022/09/14 11:17:57;;;;;;;6.30;1.70;;;;;;;20.92;52.85;99825.04;108290;1277;71930;-83
2022/09/14 11:20:33;;;;;;;7.10;1.20;;;;;;;21.03;53.18;99817.69;108239;1277;72743;-83
2022/09/14 11:23:14;;;;;;;5.40;1.00;;;;;;;21.14;52.60;99817.77;108257;1277;60482;-82
2022/09/14 11:25:47;;;;;;;7.30;1.40;;;;;;;21.32;52.92;99812.45;108248;1276;60660;-83
2022/09/14 11:28:26;;;;;;;5.70;1.70;;;;;;;21.51;53.14;99816.28;108047;1278;76275;-83
2022/09/14 11:31:00;;;;;;;5.20;1.30;;;;;;;21.60;52.13;99817.05;108204;1277;72406;-83
2022/09/14 11:33:37;;;;;;;4.30;1.30;;;;;;;21.61;52.09;99822.34;108118;1277;71944;-83
2022/09/14 11:36:15;;;;;;;5.50;1.40;;;;;;;21.69;52.18;99827.84;108031;1277;61830;-83
2022/09/14 11:38:59;;;;;;;4.20;1.40;;;;;;;21.76;51.25;99824.61;108075;1277;61723;-83
2022/09/14 11:41:41;;;;;;;4.60;1.40;;;;;;;21.83;51.26;99821.31;108215;1277;74200;-83
2022/09/14 11:44:26;;;;;;;5.10;1.60;;;;;;;21.81;50.97;99821.14;108091;1278;71493;-83
2022/09/14 11:47:19;;;;;;;5.70;1.40;;;;;;;21.76;50.32;99824.23;107867;1277;72976;-84
2022/09/14 11:50:12;;;;;;;5.40;1.40;;;;;;;21.70;50.57;99822.06;108163;1277;61316;-83